Rome City, Indiana
Current Conditions -  °F | °C
As of 7:55 PM on Tuesday 21 Oct 2014 (Local Time) from KANQ Reporting Station
Overcast Overcast  
Wind Chill: 43°   Ceiling: 3700
Heat Index: 46°   Visibility: 10mi
Dew Point: 28°   Wind: 7mph
Humidity: 50%   Direction: 30°NNE
Pressure: 30.18"   Gusts: NA
Location:  41.5°N, 85.38°W
Report Text: KANQ 212355Z AUTO 03006KT 10SM OVC037 08/M02 A3018 RMK
Loading
Personal Weather Stations






























Interactive Weather Map
Tropical Storm Tracking
New forecast layout! Learn more

10-Day Weather Forecast

Advertisements
Track Severe Weather on mobile